createdAt,value
2018-03-02T00:00:36.962Z,-5.17
2018-03-02T00:01:36.968Z,-5.13
2018-03-02T00:02:36.975Z,-5.21
2018-03-02T00:03:36.984Z,-5.14
2018-03-02T00:04:36.994Z,-5.24
2018-03-02T00:05:37.003Z,-5.25
2018-03-02T00:06:37.012Z,-5.21
2018-03-02T00:07:37.023Z,-5.18
2018-03-02T00:08:37.032Z,-5.28
2018-03-02T00:09:37.042Z,-5.31
2018-03-02T00:10:37.051Z,-5.27
2018-03-02T00:11:37.060Z,-5.25
2018-03-02T00:12:37.071Z,-5.36
2018-03-02T00:13:37.080Z,-5.28
2018-03-02T00:14:37.089Z,-5.29
2018-03-02T00:15:37.098Z,-5.35
2018-03-02T00:16:37.108Z,-5.38
2018-03-02T00:17:37.118Z,-5.40
2018-03-02T00:18:37.127Z,-5.40
2018-03-02T00:19:37.139Z,-5.38
2018-03-02T00:20:37.148Z,-5.45
2018-03-02T00:21:37.157Z,-5.39
2018-03-02T00:22:37.164Z,-5.38
2018-03-02T00:23:37.174Z,-5.31
2018-03-02T00:24:37.184Z,-5.36
2018-03-02T00:25:37.193Z,-5.49
2018-03-02T00:26:37.202Z,-5.54
2018-03-02T00:27:37.212Z,-5.42
2018-03-02T00:28:37.221Z,-5.43
2018-03-02T00:29:37.233Z,-5.38
2018-03-02T00:30:37.240Z,-5.46
2018-03-02T00:31:37.250Z,-5.47
2018-03-02T00:32:37.258Z,-5.43
2018-03-02T00:33:37.269Z,-5.47
2018-03-02T00:34:37.277Z,-5.51
2018-03-02T00:35:37.286Z,-5.45
2018-03-02T00:36:37.297Z,-5.47
2018-03-02T00:37:37.307Z,-5.49
2018-03-02T00:38:37.314Z,-5.47
2018-03-02T00:39:37.324Z,-5.46
2018-03-02T00:40:37.334Z,-5.43
2018-03-02T00:41:37.344Z,-5.53
2018-03-02T00:42:37.351Z,-5.39
2018-03-02T00:43:37.362Z,-5.56
2018-03-02T00:44:37.371Z,-5.58
2018-03-02T00:45:37.381Z,-5.49
2018-03-02T00:46:37.390Z,-5.54
2018-03-02T00:47:37.400Z,-5.54
2018-03-02T00:48:37.409Z,-5.57
2018-03-02T00:49:37.418Z,-5.58
2018-03-02T00:50:37.429Z,-5.68
2018-03-02T00:51:37.437Z,-5.66
2018-03-02T00:52:37.446Z,-5.72
2018-03-02T00:53:37.456Z,-5.63
2018-03-02T00:54:37.465Z,-5.68
2018-03-02T00:55:37.473Z,-5.66
2018-03-02T00:56:37.483Z,-5.67
2018-03-02T00:57:37.493Z,-5.66
2018-03-02T00:58:37.502Z,-5.61
2018-03-02T00:59:37.511Z,-5.74
2018-03-02T01:00:37.521Z,-5.64
2018-03-02T01:01:37.530Z,-5.75
2018-03-02T01:02:37.539Z,-5.66
2018-03-02T01:03:37.548Z,-5.60
2018-03-02T01:04:37.558Z,-5.68
2018-03-02T01:05:37.567Z,-5.71
2018-03-02T01:06:37.575Z,-5.61
2018-03-02T01:07:37.584Z,-5.66
2018-03-02T01:08:37.595Z,-5.61
2018-03-02T01:09:37.608Z,-5.81
2018-03-02T01:10:37.612Z,-5.82
2018-03-02T01:11:37.677Z,-5.68
2018-03-02T01:12:37.632Z,-5.64
2018-03-02T01:13:37.640Z,-5.63
2018-03-02T01:14:37.649Z,-5.64
2018-03-02T01:15:37.658Z,-5.79
2018-03-02T01:16:37.667Z,-5.72
2018-03-02T01:17:37.677Z,-5.79
2018-03-02T01:18:37.685Z,-5.78
2018-03-02T01:19:37.696Z,-5.68
2018-03-02T01:20:37.705Z,-5.74
2018-03-02T01:21:37.715Z,-5.74
2018-03-02T01:22:37.722Z,-5.81
2018-03-02T01:23:37.731Z,-5.84
2018-03-02T01:24:37.742Z,-5.78
2018-03-02T01:25:37.751Z,-5.81
2018-03-02T01:26:37.764Z,-5.81
2018-03-02T01:27:37.768Z,-5.79
2018-03-02T01:28:37.778Z,-5.78
2018-03-02T01:29:37.787Z,-5.81
2018-03-02T01:30:37.796Z,-5.82
2018-03-02T01:31:37.805Z,-5.86
2018-03-02T01:32:37.814Z,-5.84
2018-03-02T01:33:37.824Z,-5.84
2018-03-02T01:34:37.832Z,-5.79
2018-03-02T01:35:37.843Z,-5.82
2018-03-02T01:36:37.851Z,-5.81
2018-03-02T01:37:37.860Z,-5.85
2018-03-02T01:38:37.868Z,-5.84
2018-03-02T01:39:37.878Z,-5.85
2018-03-02T01:40:37.890Z,-5.86
2018-03-02T01:41:37.897Z,-5.92
2018-03-02T01:42:37.908Z,-5.93
2018-03-02T01:43:37.921Z,-5.90
2018-03-02T01:44:37.924Z,-5.92
2018-03-02T01:45:37.933Z,-5.85
2018-03-02T01:46:37.942Z,-5.89
2018-03-02T01:47:37.951Z,-6.05
2018-03-02T01:48:37.960Z,-5.96
2018-03-02T01:49:37.970Z,-5.96
2018-03-02T01:50:37.978Z,-5.95
2018-03-02T01:51:37.988Z,-5.92
2018-03-02T01:52:37.997Z,-5.93
2018-03-02T01:53:38.006Z,-6.07
2018-03-02T01:54:38.015Z,-6.02
2018-03-02T01:55:38.025Z,-5.97
2018-03-02T01:56:38.033Z,-6.08
2018-03-02T01:57:38.042Z,-6.02
2018-03-02T01:58:38.051Z,-6.14
2018-03-02T01:59:38.063Z,-6.07
2018-03-02T02:00:38.070Z,-6.05
2018-03-02T02:01:38.078Z,-5.93
2018-03-02T02:02:38.086Z,-5.90
2018-03-02T02:03:38.096Z,-5.96
2018-03-02T02:04:38.105Z,-6.02
2018-03-02T02:05:38.114Z,-6.05
2018-03-02T02:06:38.123Z,-6.23
2018-03-02T02:07:38.132Z,-6.08
2018-03-02T02:08:38.141Z,-6.17
2018-03-02T02:09:38.151Z,-6.11
2018-03-02T02:10:38.159Z,-6.18
2018-03-02T02:11:38.168Z,-6.18
2018-03-02T02:12:38.177Z,-6.17
2018-03-02T02:13:38.187Z,-6.10
2018-03-02T02:14:38.195Z,-6.11
2018-03-02T02:15:38.205Z,-6.07
2018-03-02T02:16:38.213Z,-6.21
2018-03-02T02:17:38.223Z,-6.15
2018-03-02T02:18:38.231Z,-6.15
2018-03-02T02:19:38.240Z,-6.21
2018-03-02T02:20:38.249Z,-6.17
2018-03-02T02:21:38.258Z,-6.18
2018-03-02T02:22:38.267Z,-6.15
2018-03-02T02:23:38.275Z,-6.21
2018-03-02T02:24:38.285Z,-6.21
2018-03-02T02:25:38.294Z,-6.29
2018-03-02T02:26:38.302Z,-6.17
2018-03-02T02:27:38.311Z,-6.26
2018-03-02T02:28:38.322Z,-6.21
2018-03-02T02:29:38.334Z,-6.20
2018-03-02T02:30:38.338Z,-6.28
2018-03-02T02:31:38.348Z,-6.29
2018-03-02T02:32:38.358Z,-6.32
2018-03-02T02:33:38.366Z,-6.35
2018-03-02T02:34:38.374Z,-6.47
2018-03-02T02:35:38.383Z,-6.42
2018-03-02T02:36:38.393Z,-6.44
2018-03-02T02:37:38.406Z,-6.41
2018-03-02T02:38:38.408Z,-6.49
2018-03-02T02:39:38.420Z,-6.39
2018-03-02T02:40:38.429Z,-6.42
2018-03-02T02:41:38.443Z,-6.52
2018-03-02T02:42:38.449Z,-6.39
2018-03-02T02:43:38.453Z,-6.41
2018-03-02T02:44:38.463Z,-6.46
2018-03-02T02:45:38.475Z,-6.52
2018-03-02T02:46:38.481Z,-6.41
2018-03-02T02:47:38.490Z,-6.44
2018-03-02T02:48:38.498Z,-6.47
2018-03-02T02:49:38.507Z,-6.49
2018-03-02T02:50:38.523Z,-6.46
2018-03-02T02:51:38.526Z,-6.49
2018-03-02T02:52:38.533Z,-6.58
2018-03-02T02:53:38.543Z,-6.61
2018-03-02T02:54:38.569Z,-6.54
2018-03-02T02:55:38.559Z,-6.53
2018-03-02T02:56:38.567Z,-6.56
2018-03-02T02:57:38.579Z,-6.52
2018-03-02T02:58:38.585Z,-6.60
2018-03-02T02:59:38.593Z,-6.49
2018-03-02T03:00:38.604Z,-6.53
2018-03-02T03:01:38.614Z,-6.63
2018-03-02T03:02:38.630Z,-6.68
2018-03-02T03:03:38.629Z,-6.63
2018-03-02T03:04:38.638Z,-6.66
2018-03-02T03:05:38.647Z,-6.65
2018-03-02T03:06:38.654Z,-6.58
2018-03-02T03:07:38.664Z,-6.61
2018-03-02T03:08:38.674Z,-6.61
2018-03-02T03:09:38.681Z,-6.63
2018-03-02T03:10:38.691Z,-6.66
2018-03-02T03:11:38.698Z,-6.68
2018-03-02T03:12:38.707Z,-6.68
2018-03-02T03:13:38.717Z,-6.71
2018-03-02T03:14:38.725Z,-6.69
2018-03-02T03:15:38.740Z,-6.69
2018-03-02T03:16:38.741Z,-6.68
2018-03-02T03:17:38.751Z,-6.72
2018-03-02T03:18:38.759Z,-6.69
2018-03-02T03:19:38.768Z,-6.69
2018-03-02T03:20:38.778Z,-6.66
2018-03-02T03:21:38.785Z,-6.66
2018-03-02T03:22:38.793Z,-6.65
2018-03-02T03:23:38.802Z,-6.61
2018-03-02T03:24:38.811Z,-6.75
2018-03-02T03:25:38.819Z,-6.79
2018-03-02T03:26:38.828Z,-6.71
2018-03-02T03:27:38.836Z,-6.78
2018-03-02T03:28:38.846Z,-6.71
2018-03-02T03:29:38.855Z,-6.68
2018-03-02T03:30:38.863Z,-6.78
2018-03-02T03:31:38.873Z,-6.81
2018-03-02T03:32:38.880Z,-6.83
2018-03-02T03:33:38.889Z,-6.84
2018-03-02T03:34:38.896Z,-6.79
2018-03-02T03:35:38.905Z,-6.96
2018-03-02T03:36:38.914Z,-6.78
2018-03-02T03:37:38.929Z,-6.92
2018-03-02T03:38:38.931Z,-6.90
2018-03-02T03:39:38.938Z,-6.79
2018-03-02T03:40:38.948Z,-6.87
2018-03-02T03:41:38.958Z,-6.90
2018-03-02T03:42:38.964Z,-6.72
2018-03-02T03:43:39.009Z,-6.87
2018-03-02T03:44:38.984Z,-6.83
2018-03-02T03:45:38.991Z,-6.87
2018-03-02T03:46:38.999Z,-6.93
2018-03-02T03:47:39.008Z,-6.94
2018-03-02T03:48:39.017Z,-6.86
2018-03-02T03:49:39.025Z,-6.89
2018-03-02T03:50:39.033Z,-6.83
2018-03-02T03:51:39.042Z,-6.86
2018-03-02T03:52:39.051Z,-6.92
2018-03-02T03:53:39.059Z,-6.93
2018-03-02T03:54:39.067Z,-6.97
2018-03-02T03:55:39.075Z,-6.99
2018-03-02T03:56:39.085Z,-6.93
2018-03-02T03:57:39.093Z,-6.93
2018-03-02T03:58:39.101Z,-7.07
2018-03-02T03:59:39.110Z,-7.00
2018-03-02T04:00:39.118Z,-6.99
2018-03-02T04:01:39.128Z,-6.96
2018-03-02T04:02:39.135Z,-6.97
2018-03-02T04:03:39.144Z,-7.05
2018-03-02T04:04:39.156Z,-6.96
2018-03-02T04:05:39.161Z,-7.03
2018-03-02T04:06:39.169Z,-7.11
2018-03-02T04:07:39.178Z,-7.14
2018-03-02T04:08:39.185Z,-7.07
2018-03-02T04:09:39.195Z,-6.97
2018-03-02T04:10:39.203Z,-7.00
2018-03-02T04:11:39.213Z,-7.04
2018-03-02T04:12:39.220Z,-7.14
2018-03-02T04:13:39.228Z,-7.10
2018-03-02T04:14:39.239Z,-7.07
2018-03-02T04:15:39.250Z,-7.08
2018-03-02T04:16:39.258Z,-7.15
2018-03-02T04:17:39.262Z,-7.08
2018-03-02T04:18:39.270Z,-7.10
2018-03-02T04:19:39.278Z,-7.15
2018-03-02T04:20:39.287Z,-7.10
2018-03-02T04:21:39.297Z,-7.11
2018-03-02T04:22:39.303Z,-7.03
2018-03-02T04:23:39.312Z,-7.08
2018-03-02T04:24:39.320Z,-7.10
2018-03-02T04:25:39.329Z,-7.17
2018-03-02T04:26:39.336Z,-7.17
2018-03-02T04:27:39.345Z,-7.05
2018-03-02T04:28:39.354Z,-7.04
2018-03-02T04:29:39.363Z,-7.08
2018-03-02T04:30:39.374Z,-7.10
2018-03-02T04:31:39.378Z,-7.11
2018-03-02T04:32:39.387Z,-7.11
2018-03-02T04:33:39.395Z,-7.23
2018-03-02T04:34:39.404Z,-7.21
2018-03-02T04:35:39.420Z,-7.17
2018-03-02T04:36:39.421Z,-7.10
2018-03-02T04:37:39.430Z,-7.26
2018-03-02T04:38:39.437Z,-7.18
2018-03-02T04:39:39.446Z,-7.15
2018-03-02T04:40:39.455Z,-7.26
2018-03-02T04:41:39.463Z,-7.23
2018-03-02T04:42:39.471Z,-7.23
2018-03-02T04:43:39.479Z,-7.18
2018-03-02T04:44:39.488Z,-7.21
2018-03-02T04:45:39.549Z,-7.23
2018-03-02T04:46:39.504Z,-7.21
2018-03-02T04:47:39.513Z,-7.18
2018-03-02T04:48:39.521Z,-7.22
2018-03-02T04:49:39.531Z,-7.25
2018-03-02T04:50:39.537Z,-7.25
2018-03-02T04:51:39.547Z,-7.23
2018-03-02T04:52:39.555Z,-7.26
2018-03-02T04:53:39.563Z,-7.18
2018-03-02T04:54:39.572Z,-7.23
2018-03-02T04:55:39.580Z,-7.28
2018-03-02T04:56:39.593Z,-7.31
2018-03-02T04:57:39.595Z,-7.35
2018-03-02T04:58:39.604Z,-7.35
2018-03-02T04:59:39.612Z,-7.33
2018-03-02T05:00:39.625Z,-7.38
2018-03-02T05:01:39.629Z,-7.33
2018-03-02T05:02:39.638Z,-7.28
2018-03-02T05:03:39.664Z,-7.32
2018-03-02T05:04:39.655Z,-7.26
2018-03-02T05:05:39.662Z,-7.28
2018-03-02T05:06:39.669Z,-7.23
2018-03-02T05:07:39.682Z,-7.42
2018-03-02T05:08:39.688Z,-7.38
2018-03-02T05:09:39.699Z,-7.40
2018-03-02T05:10:39.703Z,-7.40
2018-03-02T05:11:39.712Z,-7.38
2018-03-02T05:12:39.721Z,-7.43
2018-03-02T05:13:39.729Z,-7.38
2018-03-02T05:14:39.736Z,-7.32
2018-03-02T05:15:39.745Z,-7.33
2018-03-02T05:16:39.754Z,-7.42
2018-03-02T05:17:39.800Z,-7.40
2018-03-02T05:18:39.770Z,-7.40
2018-03-02T05:19:39.778Z,-7.47
2018-03-02T05:20:39.786Z,-7.38
2018-03-02T05:21:39.853Z,-7.53
2018-03-02T05:22:39.802Z,-7.54
2018-03-02T05:23:39.811Z,-7.47
2018-03-02T05:24:39.819Z,-7.44
2018-03-02T05:25:39.828Z,-7.50
2018-03-02T05:26:39.835Z,-7.58
2018-03-02T05:27:39.843Z,-7.56
2018-03-02T05:28:39.852Z,-7.54
2018-03-02T05:29:39.860Z,-7.50
2018-03-02T05:30:39.868Z,-7.50
2018-03-02T05:31:39.878Z,-7.56
2018-03-02T05:32:39.885Z,-7.52
2018-03-02T05:33:39.893Z,-7.46
2018-03-02T05:34:39.901Z,-7.46
2018-03-02T05:35:39.909Z,-7.56
2018-03-02T05:36:40.018Z,-7.50
2018-03-02T05:37:39.926Z,-7.58
2018-03-02T05:38:39.934Z,-7.50
2018-03-02T05:39:39.943Z,-7.49
2018-03-02T05:40:39.949Z,-7.53
2018-03-02T05:41:39.958Z,-7.54
2018-03-02T05:42:39.965Z,-7.44
2018-03-02T05:43:39.975Z,-7.53
2018-03-02T05:44:39.983Z,-7.63
2018-03-02T05:45:39.992Z,-7.74
2018-03-02T05:46:39.999Z,-7.68
2018-03-02T05:47:40.008Z,-7.68
2018-03-02T05:48:40.016Z,-7.72
2018-03-02T05:49:40.024Z,-7.61
2018-03-02T05:50:40.037Z,-7.65
2018-03-02T05:51:40.040Z,-7.71
2018-03-02T05:52:40.047Z,-7.70
2018-03-02T05:53:40.057Z,-7.68
2018-03-02T05:54:40.068Z,-7.64
2018-03-02T05:55:40.073Z,-7.75
2018-03-02T05:56:40.082Z,-7.64
2018-03-02T05:57:40.089Z,-7.72
2018-03-02T05:58:40.096Z,-7.68
2018-03-02T05:59:40.104Z,-7.68
2018-03-02T06:00:40.113Z,-7.82
2018-03-02T06:01:40.121Z,-7.75
2018-03-02T06:02:40.129Z,-7.68
2018-03-02T06:03:40.137Z,-7.63
2018-03-02T06:04:40.185Z,-7.67
2018-03-02T06:05:40.153Z,-7.74
2018-03-02T06:06:40.161Z,-7.78
2018-03-02T06:07:40.168Z,-7.75
2018-03-02T06:08:40.176Z,-7.75
2018-03-02T06:09:40.185Z,-7.70
2018-03-02T06:10:40.192Z,-7.81
2018-03-02T06:11:40.201Z,-7.79
2018-03-02T06:12:40.213Z,-7.78
2018-03-02T06:13:40.217Z,-7.70
2018-03-02T06:14:40.225Z,-7.74
2018-03-02T06:15:40.237Z,-7.75
2018-03-02T06:16:40.241Z,-7.74
2018-03-02T06:17:40.250Z,-7.83
2018-03-02T06:18:40.255Z,-7.79
2018-03-02T06:19:40.265Z,-7.83
2018-03-02T06:20:40.274Z,-7.74
2018-03-02T06:21:40.282Z,-7.74
2018-03-02T06:22:40.292Z,-7.70
2018-03-02T06:23:40.298Z,-7.79
2018-03-02T06:24:40.305Z,-7.74
2018-03-02T06:25:40.317Z,-7.82
2018-03-02T06:26:40.322Z,-7.78
2018-03-02T06:27:40.329Z,-7.78
2018-03-02T06:28:40.344Z,-7.92
2018-03-02T06:29:40.346Z,-7.83
2018-03-02T06:30:40.353Z,-7.85
2018-03-02T06:31:40.360Z,-7.88
2018-03-02T06:32:40.371Z,-7.86
2018-03-02T06:33:40.377Z,-7.85
2018-03-02T06:34:40.385Z,-8.01
2018-03-02T06:35:40.394Z,-7.83
2018-03-02T06:36:40.402Z,-7.79
2018-03-02T06:37:40.410Z,-7.75
2018-03-02T06:38:40.419Z,-7.72
2018-03-02T06:39:40.427Z,-7.75
2018-03-02T06:40:40.433Z,-7.71
2018-03-02T06:41:40.442Z,-7.71
2018-03-02T06:42:40.449Z,-7.71
2018-03-02T06:43:40.458Z,-7.75
2018-03-02T06:44:40.465Z,-7.78
2018-03-02T06:45:40.474Z,-7.60
2018-03-02T06:46:40.481Z,-7.70
2018-03-02T06:47:40.489Z,-7.74
2018-03-02T06:48:40.498Z,-7.71
2018-03-02T06:49:40.506Z,-7.74
2018-03-02T06:50:40.513Z,-7.75
2018-03-02T06:51:40.522Z,-7.72
2018-03-02T06:52:40.529Z,-7.65
2018-03-02T06:53:40.539Z,-7.72
2018-03-02T06:54:40.546Z,-7.71
2018-03-02T06:55:40.555Z,-7.68
2018-03-02T06:56:40.563Z,-7.64
2018-03-02T06:57:40.571Z,-7.61
2018-03-02T06:58:40.616Z,-7.71
2018-03-02T06:59:40.587Z,-7.67
2018-03-02T07:00:40.594Z,-7.71
2018-03-02T07:01:40.604Z,-7.72
2018-03-02T07:02:40.611Z,-7.67
2018-03-02T07:03:40.620Z,-7.75
2018-03-02T07:04:40.628Z,-7.68
2018-03-02T07:05:40.641Z,-7.68
2018-03-02T07:06:40.643Z,-7.67
2018-03-02T07:07:40.651Z,-7.70
2018-03-02T07:08:40.666Z,-7.75
2018-03-02T07:09:40.674Z,-7.63
2018-03-02T07:10:40.681Z,-7.64
2018-03-02T07:11:40.684Z,-7.68
2018-03-02T07:12:40.693Z,-7.72
2018-03-02T07:13:40.701Z,-7.64
2018-03-02T07:14:40.707Z,-7.50
2018-03-02T07:15:40.715Z,-7.46
2018-03-02T07:16:40.725Z,-7.49
2018-03-02T07:17:40.733Z,-7.60
2018-03-02T07:18:40.741Z,-7.63
2018-03-02T07:19:40.749Z,-7.61
2018-03-02T07:20:40.757Z,-7.53
2018-03-02T07:21:40.766Z,-7.50
2018-03-02T07:22:40.773Z,-7.50
2018-03-02T07:23:40.782Z,-7.47
2018-03-02T07:24:40.791Z,-7.52
2018-03-02T07:25:40.798Z,-7.46
2018-03-02T07:26:40.806Z,-7.43
2018-03-02T07:27:40.818Z,-7.52
2018-03-02T07:28:40.823Z,-7.44
2018-03-02T07:29:40.835Z,-7.52
2018-03-02T07:30:40.838Z,-7.43
2018-03-02T07:31:40.849Z,-7.38
2018-03-02T07:32:40.856Z,-7.36
2018-03-02T07:33:40.864Z,-7.33
2018-03-02T07:34:40.874Z,-7.29
2018-03-02T07:35:40.880Z,-7.38
2018-03-02T07:36:40.889Z,-7.40
2018-03-02T07:37:40.897Z,-7.28
2018-03-02T07:38:40.905Z,-7.35
2018-03-02T07:39:40.914Z,-7.23
2018-03-02T07:40:40.922Z,-7.23
2018-03-02T07:41:40.931Z,-7.18
2018-03-02T07:42:40.939Z,-7.22
2018-03-02T07:43:40.950Z,-7.25
2018-03-02T07:44:40.956Z,-7.31
2018-03-02T07:45:40.965Z,-7.28
2018-03-02T07:46:41.077Z,-7.18
2018-03-02T07:47:40.980Z,-7.22
2018-03-02T07:48:40.989Z,-7.18
2018-03-02T07:49:40.998Z,-7.17
2018-03-02T07:50:41.006Z,-7.15
2018-03-02T07:51:41.017Z,-7.10
2018-03-02T07:52:41.023Z,-6.97
2018-03-02T07:53:41.031Z,-6.99
2018-03-02T07:54:41.038Z,-6.97
2018-03-02T07:55:41.049Z,-6.94
2018-03-02T07:56:41.056Z,-6.89
2018-03-02T07:57:41.065Z,-6.79
2018-03-02T07:58:41.073Z,-6.94
2018-03-02T07:59:41.082Z,-6.86
2018-03-02T08:00:41.091Z,-6.86
2018-03-02T08:01:41.100Z,-6.93
2018-03-02T08:02:41.107Z,-6.84
2018-03-02T08:03:41.116Z,-6.90
2018-03-02T08:04:41.125Z,-6.71
2018-03-02T08:05:41.133Z,-6.66
2018-03-02T08:06:41.142Z,-6.76
2018-03-02T08:07:41.151Z,-6.72
2018-03-02T08:08:41.160Z,-6.87
2018-03-02T08:09:41.169Z,-6.63
2018-03-02T08:10:41.177Z,-6.56
2018-03-02T08:11:41.185Z,-6.56
2018-03-02T08:12:41.195Z,-6.58
2018-03-02T08:13:41.204Z,-6.54
2018-03-02T08:14:41.211Z,-6.54
2018-03-02T08:15:41.221Z,-6.78
2018-03-02T08:16:41.232Z,-6.54
2018-03-02T08:17:41.239Z,-6.17
2018-03-02T08:18:41.248Z,-6.29
2018-03-02T08:19:41.256Z,-6.35
2018-03-02T08:20:41.265Z,-6.32
2018-03-02T08:21:41.276Z,-6.35
2018-03-02T08:22:41.284Z,-6.42
2018-03-02T08:23:41.293Z,-6.56
2018-03-02T08:24:41.302Z,-6.41
2018-03-02T08:25:41.312Z,-6.39
2018-03-02T08:26:41.322Z,-6.28
2018-03-02T08:27:41.330Z,-6.42
2018-03-02T08:28:41.340Z,-6.34
2018-03-02T08:29:41.350Z,-6.32
2018-03-02T08:30:41.356Z,-6.39
2018-03-02T08:31:41.367Z,-6.44
2018-03-02T08:32:41.377Z,-6.39
2018-03-02T08:33:41.385Z,-6.26
2018-03-02T08:34:41.395Z,-6.34
2018-03-02T08:35:41.404Z,-6.14
2018-03-02T08:36:41.413Z,-6.17
2018-03-02T08:37:41.431Z,-6.23
2018-03-02T08:38:41.431Z,-6.03
2018-03-02T08:39:41.440Z,-6.07
2018-03-02T08:40:41.450Z,-5.92
2018-03-02T08:41:41.459Z,-5.79
2018-03-02T08:42:41.469Z,-5.82
2018-03-02T08:43:41.479Z,-5.84
2018-03-02T08:44:41.487Z,-5.81
2018-03-02T08:45:41.496Z,-5.67
2018-03-02T08:46:41.504Z,-5.75
2018-03-02T08:47:41.514Z,-5.76
2018-03-02T08:48:41.578Z,-5.78
2018-03-02T08:49:41.534Z,-5.63
2018-03-02T08:50:41.543Z,-5.60
2018-03-02T08:51:41.552Z,-5.46
2018-03-02T08:52:41.560Z,-5.49
2018-03-02T08:53:41.574Z,-5.75
2018-03-02T08:54:41.580Z,-5.71
2018-03-02T08:55:41.589Z,-5.61
2018-03-02T08:56:41.599Z,-5.68
2018-03-02T08:57:41.609Z,-5.60
2018-03-02T08:58:41.619Z,-5.63
2018-03-02T08:59:41.640Z,-5.46
2018-03-02T09:00:41.639Z,-5.45
2018-03-02T09:01:41.648Z,-5.63
2018-03-02T09:02:41.657Z,-5.76
2018-03-02T09:03:41.667Z,-5.63
2018-03-02T09:04:41.676Z,-5.54
2018-03-02T09:05:41.685Z,-5.57
2018-03-02T09:06:41.695Z,-5.43
2018-03-02T09:07:41.704Z,-5.42
2018-03-02T09:08:41.715Z,-5.28
2018-03-02T09:09:41.724Z,-5.13
2018-03-02T09:10:41.733Z,-5.03
2018-03-02T09:11:41.743Z,-4.99
2018-03-02T09:12:41.753Z,-4.92
2018-03-02T09:13:41.762Z,-4.98
2018-03-02T09:14:41.772Z,-4.99
2018-03-02T09:15:41.782Z,-4.88
2018-03-02T09:16:41.792Z,-5.02
2018-03-02T09:17:41.804Z,-4.95
2018-03-02T09:18:41.814Z,-4.87
2018-03-02T09:19:41.821Z,-4.82
2018-03-02T09:20:41.831Z,-4.64
2018-03-02T09:21:41.842Z,-4.60
2018-03-02T09:22:41.851Z,-4.53
2018-03-02T09:23:41.872Z,-4.77
2018-03-02T09:24:41.871Z,-4.69
2018-03-02T09:25:41.882Z,-4.82
2018-03-02T09:26:41.891Z,-4.85
2018-03-02T09:27:41.901Z,-4.88
2018-03-02T09:28:41.911Z,-5.05
2018-03-02T09:29:41.921Z,-4.99
2018-03-02T09:30:41.935Z,-4.67
2018-03-02T09:31:41.941Z,-4.73
2018-03-02T09:32:41.950Z,-4.70
2018-03-02T09:33:41.960Z,-4.57
2018-03-02T09:34:41.969Z,-4.50
2018-03-02T09:35:41.980Z,-4.66
2018-03-02T09:36:41.996Z,-4.84
2018-03-02T09:37:42.002Z,-4.60
2018-03-02T09:38:42.012Z,-4.52
2018-03-02T09:39:42.021Z,-4.52
2018-03-02T09:40:42.032Z,-4.46
2018-03-02T09:41:42.042Z,-4.48
2018-03-02T09:42:42.109Z,-4.53
2018-03-02T09:43:42.062Z,-4.63
2018-03-02T09:44:42.072Z,-4.71
2018-03-02T09:45:42.082Z,-4.55
2018-03-02T09:46:42.092Z,-4.48
2018-03-02T09:47:42.107Z,-4.30
2018-03-02T09:48:42.114Z,-4.45
2018-03-02T09:49:42.124Z,-4.31
2018-03-02T09:50:42.133Z,-4.27
2018-03-02T09:51:42.143Z,-4.21
2018-03-02T09:52:42.154Z,-4.14
2018-03-02T09:53:42.166Z,-4.09
2018-03-02T09:54:42.173Z,-3.85
2018-03-02T09:55:42.184Z,-4.06
2018-03-02T09:56:42.195Z,-3.83
2018-03-02T09:57:42.205Z,-3.98
2018-03-02T09:58:42.220Z,-3.78
2018-03-02T09:59:42.225Z,-3.69
2018-03-02T10:00:42.239Z,-3.64
2018-03-02T10:01:42.247Z,-3.61
2018-03-02T10:02:42.257Z,-3.64
2018-03-02T10:03:42.267Z,-3.72
2018-03-02T10:04:42.280Z,-3.63
2018-03-02T10:05:42.289Z,-3.67
2018-03-02T10:06:42.299Z,-3.61
2018-03-02T10:07:42.310Z,-3.67
2018-03-02T10:08:42.321Z,-3.72
2018-03-02T10:09:42.332Z,-3.49
2018-03-02T10:10:42.342Z,-3.56
2018-03-02T10:11:42.352Z,-3.45
2018-03-02T10:12:42.365Z,-3.23
2018-03-02T10:13:42.374Z,-3.38
2018-03-02T10:14:42.390Z,-3.52
2018-03-02T10:15:42.396Z,-3.31
2018-03-02T10:16:42.457Z,-3.30
2018-03-02T10:17:42.418Z,-3.34
2018-03-02T10:18:42.429Z,-3.23
2018-03-02T10:19:42.440Z,-3.06
2018-03-02T10:20:42.484Z,-3.09
2018-03-02T10:21:42.478Z,-3.35
2018-03-02T10:22:42.471Z,-3.12
2018-03-02T10:23:42.485Z,-2.88
2018-03-02T10:24:42.494Z,-2.86
2018-03-02T10:25:42.507Z,-2.74
2018-03-02T10:26:42.516Z,-2.74
2018-03-02T10:27:42.530Z,-2.95
2018-03-02T10:28:42.539Z,-3.12
2018-03-02T10:29:42.557Z,-3.07
2018-03-02T10:30:42.562Z,-2.83
2018-03-02T10:31:42.572Z,-2.77
2018-03-02T10:32:42.584Z,-2.74
2018-03-02T10:33:42.653Z,-2.66
2018-03-02T10:34:42.606Z,-2.71
2018-03-02T10:35:42.642Z,-2.70
2018-03-02T10:36:42.629Z,-2.81
2018-03-02T10:37:42.642Z,-2.73
2018-03-02T10:38:42.651Z,-2.74
2018-03-02T10:39:42.663Z,-2.63
2018-03-02T10:40:42.675Z,-2.56
2018-03-02T10:41:42.687Z,-2.62
2018-03-02T10:42:42.699Z,-2.71
2018-03-02T10:43:42.708Z,-2.59
2018-03-02T10:44:42.921Z,-2.62
2018-03-02T10:45:42.732Z,-2.80
2018-03-02T10:46:42.747Z,-2.70
2018-03-02T10:47:42.756Z,-2.63
2018-03-02T10:48:42.767Z,-2.44
2018-03-02T10:49:42.778Z,-2.53
2018-03-02T10:50:42.789Z,-2.35
2018-03-02T10:51:42.800Z,-2.38
2018-03-02T10:52:42.812Z,-2.28
2018-03-02T10:53:42.824Z,-2.26
2018-03-02T10:54:42.834Z,-2.25
2018-03-02T10:55:43.447Z,-2.41
2018-03-02T10:56:42.859Z,-2.42
2018-03-02T10:57:42.870Z,-2.37
2018-03-02T10:58:42.881Z,-2.58
2018-03-02T10:59:42.894Z,-2.40
2018-03-02T11:00:42.905Z,-2.40
2018-03-02T11:01:42.917Z,-2.52
2018-03-02T11:02:42.927Z,-2.44
2018-03-02T11:03:42.938Z,-2.30
2018-03-02T11:04:42.951Z,-2.18
2018-03-02T11:05:42.962Z,-2.05
2018-03-02T11:06:42.973Z,-1.95
2018-03-02T11:07:42.985Z,-1.83
2018-03-02T11:08:42.997Z,-2.21
2018-03-02T11:09:43.011Z,-2.07
2018-03-02T11:10:43.020Z,-2.15
2018-03-02T11:11:43.032Z,-2.37
2018-03-02T11:12:43.045Z,-2.10
2018-03-02T11:13:43.103Z,-2.38
2018-03-02T11:14:43.068Z,-2.35
2018-03-02T11:15:43.078Z,-2.05
2018-03-02T11:16:43.090Z,-1.92
2018-03-02T11:17:43.102Z,-1.77
2018-03-02T11:18:43.114Z,-1.86
2018-03-02T11:19:43.126Z,-1.76
2018-03-02T11:20:43.139Z,-1.71
2018-03-02T11:21:43.150Z,-1.84
2018-03-02T11:22:43.161Z,-1.86
2018-03-02T11:23:43.173Z,-1.83
2018-03-02T11:24:43.185Z,-2.13
2018-03-02T11:25:43.199Z,-2.16
2018-03-02T11:26:43.210Z,-2.18
2018-03-02T11:27:43.221Z,-2.08
2018-03-02T11:28:43.233Z,-2.23
2018-03-02T11:29:43.245Z,-2.22
2018-03-02T11:30:43.256Z,-2.13
2018-03-02T11:31:43.268Z,-1.94
2018-03-02T11:32:43.281Z,-2.10
2018-03-02T11:33:43.301Z,-2.10
2018-03-02T11:34:43.307Z,-1.92
2018-03-02T11:35:43.315Z,-1.83
2018-03-02T11:36:43.328Z,-1.86
2018-03-02T11:37:43.339Z,-1.66
2018-03-02T11:38:43.351Z,-1.82
2018-03-02T11:39:43.363Z,-1.90
2018-03-02T11:40:43.381Z,-1.87
2018-03-02T11:41:43.387Z,-1.87
2018-03-02T11:42:43.398Z,-1.87
2018-03-02T11:43:43.410Z,-1.90
2018-03-02T11:44:43.423Z,-1.82
2018-03-02T11:45:43.435Z,-1.69
2018-03-02T11:46:43.445Z,-1.72
2018-03-02T11:47:43.458Z,-1.77
2018-03-02T11:48:43.470Z,-1.68
2018-03-02T11:49:43.482Z,-1.87
2018-03-02T11:50:43.494Z,-1.84
2018-03-02T11:51:43.506Z,-2.02
2018-03-02T11:52:43.519Z,-2.02
2018-03-02T11:53:43.531Z,-1.92
2018-03-02T11:54:43.541Z,-1.76
2018-03-02T11:55:43.555Z,-1.69
2018-03-02T11:56:43.566Z,-1.83
2018-03-02T11:57:43.578Z,-1.94
2018-03-02T11:58:43.590Z,-1.94
2018-03-02T11:59:43.603Z,-1.87
2018-03-02T12:00:43.863Z,-1.98
2018-03-02T12:01:43.625Z,-1.83
2018-03-02T12:02:43.636Z,-1.62
2018-03-02T12:03:43.652Z,-1.59
2018-03-02T12:04:43.661Z,-1.61
2018-03-02T12:05:43.673Z,-1.58
2018-03-02T12:06:43.684Z,-1.54
2018-03-02T12:07:43.696Z,-1.54
2018-03-02T12:08:43.707Z,-1.64
2018-03-02T12:09:43.720Z,-1.48
2018-03-02T12:10:43.732Z,-1.53
2018-03-02T12:11:43.744Z,-1.54
2018-03-02T12:12:43.757Z,-1.68
2018-03-02T12:13:43.770Z,-1.82
2018-03-02T12:14:43.781Z,-1.66
2018-03-02T12:15:43.943Z,-1.59
2018-03-02T12:16:43.823Z,-1.58
2018-03-02T12:17:43.816Z,-1.53
2018-03-02T12:18:43.828Z,-1.69
2018-03-02T12:19:43.840Z,-1.77
2018-03-02T12:20:43.854Z,-1.62
2018-03-02T12:21:44.170Z,-1.56
2018-03-02T12:22:43.906Z,-1.51
2018-03-02T12:23:43.888Z,-1.62
2018-03-02T12:24:43.901Z,-1.46
2018-03-02T12:25:43.913Z,-1.46
2018-03-02T12:26:43.924Z,-1.37
2018-03-02T12:27:43.939Z,-1.22
2018-03-02T12:28:43.949Z,-1.35
2018-03-02T12:29:43.961Z,-1.33
2018-03-02T12:30:43.973Z,-1.22
2018-03-02T12:31:43.987Z,-1.15
2018-03-02T12:32:43.997Z,-1.04
2018-03-02T12:33:44.012Z,-1.12
2018-03-02T12:34:44.022Z,-1.22
2018-03-02T12:35:44.034Z,-1.23
2018-03-02T12:36:44.090Z,-1.27
2018-03-02T12:37:44.059Z,-1.46
2018-03-02T12:38:44.074Z,-1.44
2018-03-02T12:39:44.083Z,-1.35
2018-03-02T12:40:44.099Z,-1.22
2018-03-02T12:41:44.108Z,-1.17
2018-03-02T12:42:44.320Z,-1.07
2018-03-02T12:43:44.132Z,-0.99
2018-03-02T12:44:44.144Z,-1.05
2018-03-02T12:45:44.161Z,-1.08
2018-03-02T12:46:44.219Z,-1.07
2018-03-02T12:47:44.181Z,-1.26
2018-03-02T12:48:44.194Z,-1.17
2018-03-02T12:49:44.206Z,-1.11
2018-03-02T12:50:44.217Z,-1.05
2018-03-02T12:51:44.230Z,-1.05
2018-03-02T12:52:44.243Z,-1.17